Time;durP1;ratioP1;P1;durP2;ratioP2;P2;SDS_P1;SDS_P2;PMS_P1;PMS_P2;Temp;Humidity;BMP_temperature;BMP_pressure;BME280_temperature;BME280_humidity;BME280_pressure;Samples;Min_cycle;Max_cycle;Signal;HPM_P1;HPM_P2
2024/02/02 00:00:09;;;;;;;12.23;5.90;;;6.30;99.90;;;;;;4977525;28;20166;-67
2024/02/02 00:02:37;;;;;;;6.20;5.60;;;6.40;99.90;;;;;;4977419;28;20190;-67
2024/02/02 00:05:04;;;;;;;7.13;5.83;;;6.40;99.90;;;;;;4965490;28;20454;-68
2024/02/02 00:07:29;;;;;;;7.33;4.77;;;6.40;99.90;;;;;;4963751;28;20435;-68
2024/02/02 00:09:56;;;;;;;5.90;4.53;;;6.50;99.90;;;;;;4978219;28;20439;-68
2024/02/02 00:12:22;;;;;;;8.17;4.70;;;6.60;99.90;;;;;;4977761;28;20198;-68
2024/02/02 00:14:48;;;;;;;10.33;4.63;;;6.50;99.90;;;;;;4978019;28;20407;-68
2024/02/02 00:17:14;;;;;;;11.43;5.20;;;6.60;99.90;;;;;;4974193;28;20444;-67
2024/02/02 00:19:40;;;;;;;9.60;5.57;;;6.60;99.90;;;;;;4957928;28;20609;-68
2024/02/02 00:22:06;;;;;;;7.00;3.80;;;6.60;99.90;;;;;;4958272;28;20441;-67
2024/02/02 00:24:31;;;;;;;7.00;4.90;;;6.50;99.90;;;;;;4958748;28;20151;-67
2024/02/02 00:26:57;;;;;;;5.80;3.63;;;6.50;99.90;;;;;;4959131;28;20178;-68
2024/02/02 00:29:23;;;;;;;3.90;3.37;;;6.50;99.90;;;;;;4977351;28;20188;-68
2024/02/02 00:31:48;;;;;;;5.87;3.53;;;6.50;99.90;;;;;;4976977;28;20658;-68
2024/02/02 00:34:14;;;;;;;5.77;3.80;;;6.40;99.90;;;;;;4976910;28;20297;-67
2024/02/02 00:36:39;;;;;;;5.33;4.20;;;6.50;99.90;;;;;;4977960;28;20178;-68
2024/02/02 00:39:05;;;;;;;4.03;3.33;;;6.40;99.90;;;;;;4958958;28;20268;-67
2024/02/02 00:41:31;;;;;;;6.30;4.10;;;6.30;99.90;;;;;;4957928;28;20171;-67
2024/02/02 00:43:56;;;;;;;7.73;3.43;;;6.30;99.90;;;;;;4957379;28;20281;-67
2024/02/02 00:46:22;;;;;;;5.17;3.63;;;6.20;99.90;;;;;;4957687;28;20172;-68
2024/02/02 00:48:47;;;;;;;5.43;3.03;;;6.20;99.90;;;;;;4972709;28;20609;-68
2024/02/02 00:51:13;;;;;;;5.07;3.93;;;6.10;99.90;;;;;;4976707;28;20174;-68
2024/02/02 00:53:39;;;;;;;10.03;3.60;;;6.10;99.90;;;;;;4976608;28;20209;-67
2024/02/02 00:56:05;;;;;;;3.90;3.47;;;6.10;99.90;;;;;;4976598;28;20215;-68
2024/02/02 00:58:30;;;;;;;4.50;2.93;;;6.10;99.90;;;;;;4963842;28;20193;-66
2024/02/02 01:00:56;;;;;;;4.90;3.00;;;6.10;99.90;;;;;;4956990;28;20410;-67
2024/02/02 01:03:21;;;;;;;3.13;2.70;;;6.10;99.90;;;;;;4957434;28;20194;-67
2024/02/02 01:05:47;;;;;;;3.70;2.40;;;6.10;99.90;;;;;;4956708;28;20651;-68
2024/02/02 01:08:13;;;;;;;5.73;3.17;;;6.00;99.90;;;;;;4967451;28;20178;-68
2024/02/02 01:10:38;;;;;;;6.23;3.20;;;6.00;99.90;;;;;;4976588;28;20408;-67
2024/02/02 01:13:04;;;;;;;8.47;3.40;;;6.00;99.90;;;;;;4976096;28;20677;-67
2024/02/02 01:15:30;;;;;;;7.33;3.23;;;5.90;99.90;;;;;;4976139;28;20261;-67
2024/02/02 01:17:56;;;;;;;3.73;2.70;;;5.90;99.90;;;;;;4968116;28;20275;-67
2024/02/02 01:20:21;;;;;;;5.90;3.00;;;6.00;99.90;;;;;;4956632;28;20175;-67
2024/02/02 01:22:47;;;;;;;2.90;2.33;;;5.90;99.90;;;;;;4975665;28;20730;-68
2024/02/02 01:25:14;;;;;;;6.20;2.90;;;5.90;99.90;;;;;;4974150;28;20166;-67
2024/02/02 01:27:40;;;;;;;7.77;2.80;;;5.90;99.90;;;;;;4969550;28;20494;-67
2024/02/02 01:30:07;;;;;;;4.97;3.10;;;5.90;99.90;;;;;;4956984;28;20964;-67
2024/02/02 01:32:33;;;;;;;6.30;3.03;;;5.90;99.90;;;;;;4956464;28;20473;-69
2024/02/02 01:35:00;;;;;;;5.10;2.73;;;5.90;99.90;;;;;;4956700;28;20423;-68
2024/02/02 01:37:25;;;;;;;5.90;2.80;;;5.80;99.90;;;;;;4960029;28;20398;-69
2024/02/02 01:39:51;;;;;;;5.77;2.97;;;5.80;99.90;;;;;;4975710;28;20764;-68
2024/02/02 01:42:17;;;;;;;6.37;2.50;;;5.90;99.90;;;;;;4975955;28;20189;-69
2024/02/02 01:44:43;;;;;;;4.53;1.97;;;5.90;99.90;;;;;;4975818;28;20173;-68
2024/02/02 01:47:09;;;;;;;5.23;2.40;;;5.80;99.90;;;;;;4974480;28;20422;-69
2024/02/02 01:49:35;;;;;;;12.83;2.53;;;5.70;99.90;;;;;;4956647;28;20192;-68
2024/02/02 01:52:02;;;;;;;4.10;2.20;;;5.50;99.90;;;;;;4956089;28;20171;-69
2024/02/02 01:54:29;;;;;;;3.37;2.30;;;5.60;99.90;;;;;;4956585;28;20166;-68
2024/02/02 01:56:55;;;;;;;3.93;2.40;;;5.70;99.90;;;;;;4956490;28;20410;-69
2024/02/02 01:59:22;;;;;;;5.53;2.80;;;5.80;99.90;;;;;;4975127;28;20928;-69
2024/02/02 02:01:47;;;;;;;3.93;2.30;;;5.90;99.90;;;;;;4958293;28;20487;-68
2024/02/02 02:04:13;;;;;;;3.30;2.20;;;5.90;99.90;;;;;;4956098;28;20513;-69
2024/02/02 02:06:42;;;;;;;4.23;2.40;;;5.90;99.90;;;;;;4956397;28;20185;-68
2024/02/02 02:09:09;;;;;;;7.53;2.90;;;6.00;99.90;;;;;;4972753;28;20212;-68
2024/02/02 02:11:35;;;;;;;4.20;2.90;;;6.00;99.90;;;;;;4975575;28;20412;-69
2024/02/02 02:14:01;;;;;;;3.47;2.70;;;5.90;99.90;;;;;;4975026;28;20456;-68
2024/02/02 02:16:26;;;;;;;5.40;3.03;;;5.90;99.90;;;;;;4975094;28;20170;-68
2024/02/02 02:18:52;;;;;;;4.07;2.50;;;5.90;99.90;;;;;;4960595;28;20174;-68
2024/02/02 02:21:25;;;;;;;6.90;2.57;;;5.90;99.90;;;;;;4955847;28;20170;-69
2024/02/02 02:23:51;;;;;;;4.10;2.53;;;5.90;99.90;;;;;;4955852;28;20208;-69
2024/02/02 02:26:20;;;;;;;5.17;2.10;;;5.90;99.90;;;;;;4956032;28;20415;-69
2024/02/02 02:28:46;;;;;;;6.30;2.47;;;5.90;99.90;;;;;;4969317;28;20776;-68
2024/02/02 02:31:16;;;;;;;9.97;3.20;;;5.90;99.90;;;;;;4974971;28;20416;-68
2024/02/02 02:33:43;;;;;;;5.97;2.43;;;5.80;99.90;;;;;;4975004;28;20448;-68
2024/02/02 02:36:11;;;;;;;3.47;2.73;;;5.80;99.90;;;;;;4974967;28;20500;-68
2024/02/02 02:38:36;;;;;;;4.00;2.63;;;5.80;99.90;;;;;;4962470;28;20402;-68
2024/02/02 02:41:02;;;;;;;4.90;2.67;;;5.80;99.90;;;;;;4955573;28;20918;-69
2024/02/02 02:43:29;;;;;;;8.70;3.77;;;5.80;99.90;;;;;;4955655;28;20192;-68
2024/02/02 02:45:54;;;;;;;4.07;3.07;;;5.90;99.90;;;;;;4955561;28;20177;-68
2024/02/02 02:48:21;;;;;;;8.30;3.03;;;5.90;99.90;;;;;;4964244;28;20414;-68
2024/02/02 02:50:46;;;;;;;7.30;3.20;;;5.90;99.90;;;;;;4975129;28;20224;-69
2024/02/02 02:53:12;;;;;;;7.87;3.00;;;6.00;99.90;;;;;;4974608;28;20453;-68
2024/02/02 02:55:38;;;;;;;6.63;2.60;;;5.90;99.90;;;;;;4975033;28;20169;-68
2024/02/02 02:58:04;;;;;;;5.87;2.53;;;5.90;99.90;;;;;;4967192;28;20231;-68
2024/02/02 03:00:31;;;;;;;5.27;2.77;;;5.90;99.90;;;;;;4955611;28;20185;-68
2024/02/02 03:02:57;;;;;;;5.17;2.47;;;5.90;99.90;;;;;;4955447;28;20647;-69
2024/02/02 03:05:28;;;;;;;6.23;3.10;;;6.00;99.90;;;;;;4955706;28;20773;-68
2024/02/02 03:07:54;;;;;;;4.87;2.47;;;6.00;99.90;;;;;;4961549;28;20409;-68
2024/02/02 03:10:27;;;;;;;6.33;2.90;;;6.10;99.90;;;;;;4974641;28;20428;-68
2024/02/02 03:12:53;;;;;;;3.37;2.63;;;6.00;99.90;;;;;;4974700;28;20930;-68
2024/02/02 03:15:18;;;;;;;6.10;3.13;;;6.10;99.90;;;;;;4974311;28;20440;-68
2024/02/02 03:17:45;;;;;;;2.73;2.47;;;6.10;99.90;;;;;;4970302;28;20168;-68
2024/02/02 03:20:11;;;;;;;5.10;3.03;;;6.20;99.90;;;;;;4955124;28;20182;-68
2024/02/02 03:22:38;;;;;;;7.17;3.13;;;6.20;99.90;;;;;;4955249;28;20446;-68
2024/02/02 03:25:05;;;;;;;5.13;3.30;;;6.20;99.90;;;;;;4961214;28;20425;-68
2024/02/02 03:27:30;;;;;;;7.00;3.50;;;6.30;99.90;;;;;;4974297;28;20493;-67
2024/02/02 03:29:56;;;;;;;7.73;3.60;;;6.30;99.90;;;;;;4976651;28;20410;-68
2024/02/02 03:32:21;;;;;;;4.40;2.77;;;6.30;99.90;;;;;;4977900;28;20201;-67
2024/02/02 03:34:47;;;;;;;8.23;3.30;;;6.30;99.90;;;;;;4977943;28;20181;-68
2024/02/02 03:37:12;;;;;;;5.63;3.27;;;6.40;99.90;;;;;;4977990;28;20572;-67
2024/02/02 03:39:38;;;;;;;7.80;3.20;;;6.40;99.90;;;;;;4977912;28;20163;-68
2024/02/02 03:42:04;;;;;;;6.10;2.93;;;6.40;99.90;;;;;;4978182;28;20171;-68
2024/02/02 03:44:30;;;;;;;6.80;3.00;;;6.50;99.90;;;;;;4978219;28;20175;-68
2024/02/02 03:46:55;;;;;;;4.00;2.63;;;6.50;99.90;;;;;;4977770;28;20406;-67
2024/02/02 03:49:21;;;;;;;7.90;3.90;;;6.60;99.90;;;;;;4960847;28;20462;-68
2024/02/02 03:51:47;;;;;;;6.43;3.23;;;6.50;99.90;;;;;;4958880;29;20169;-68
2024/02/02 03:54:12;;;;;;;3.23;2.63;;;6.60;99.90;;;;;;4958343;28;20690;-68
2024/02/02 03:56:40;;;;;;;7.30;3.57;;;6.60;99.90;;;;;;4971879;28;20171;-68
2024/02/02 03:59:06;;;;;;;5.20;3.17;;;6.50;99.90;;;;;;4962501;28;20650;-69
2024/02/02 04:01:32;;;;;;;6.10;3.13;;;6.50;99.90;;;;;;4958278;28;20418;-68
2024/02/02 04:03:57;;;;;;;6.60;3.80;;;6.50;99.90;;;;;;4958260;28;20435;-68
2024/02/02 04:06:23;;;;;;;4.10;3.13;;;6.40;99.90;;;;;;4956818;28;20262;-68
2024/02/02 04:08:48;;;;;;;6.00;3.67;;;6.40;99.90;;;;;;4970420;28;20184;-68
2024/02/02 04:11:14;;;;;;;9.90;3.30;;;6.40;99.90;;;;;;4977400;28;20596;-68
2024/02/02 04:13:42;;;;;;;9.80;4.40;;;6.50;99.90;;;;;;4977231;28;20199;-68
2024/02/02 04:16:07;;;;;;;7.00;4.57;;;6.50;99.90;;;;;;4977344;28;20171;-69
2024/02/02 04:18:33;;;;;;;7.23;3.50;;;6.50;99.90;;;;;;4966938;28;20416;-68
2024/02/02 04:20:59;;;;;;;4.53;3.37;;;6.60;99.90;;;;;;4957866;28;20171;-68
2024/02/02 04:23:25;;;;;;;8.93;4.60;;;6.60;99.90;;;;;;4989182;23;20235;-69
2024/02/02 04:25:51;;;;;;;4.97;3.57;;;6.60;99.90;;;;;;4997603;28;20195;-68
2024/02/02 04:28:16;;;;;;;5.00;3.50;;;6.70;99.90;;;;;;4996220;28;20400;-69
2024/02/02 04:30:42;;;;;;;5.13;4.00;;;6.70;99.90;;;;;;4996181;28;20249;-69
2024/02/02 04:33:08;;;;;;;5.80;4.00;;;6.80;99.90;;;;;;4996087;28;20642;-72
2024/02/02 04:35:34;;;;;;;4.73;4.27;;;6.90;99.90;;;;;;4996644;28;20253;-69
2024/02/02 04:38:01;;;;;;;5.63;4.30;;;7.00;99.90;;;;;;4996500;28;20631;-69
2024/02/02 04:40:26;;;;;;;6.43;4.73;;;7.10;99.90;;;;;;4996020;28;20406;-69
2024/02/02 04:42:52;;;;;;;5.43;3.80;;;7.20;99.90;;;;;;4994645;28;20457;-69
2024/02/02 04:45:18;;;;;;;6.03;3.80;;;7.30;99.90;;;;;;4996588;28;20173;-70
2024/02/02 04:47:43;;;;;;;4.50;4.03;;;7.30;99.90;;;;;;4992862;28;20173;-69
2024/02/02 04:50:09;;;;;;;5.20;3.77;;;7.40;99.90;;;;;;4976423;28;20585;-68
2024/02/02 04:52:34;;;;;;;8.07;3.90;;;7.40;99.90;;;;;;4976234;28;20243;-68
2024/02/02 04:55:01;;;;;;;5.17;3.80;;;7.50;99.90;;;;;;4976402;28;20250;-69
2024/02/02 04:57:26;;;;;;;5.77;4.43;;;7.50;99.90;;;;;;4975870;28;20172;-70
2024/02/02 04:59:53;;;;;;;5.10;3.70;;;7.50;99.90;;;;;;4996204;28;20888;-69
2024/02/02 05:02:19;;;;;;;8.83;4.43;;;7.50;99.90;;;;;;4995828;28;20226;-68
2024/02/02 05:04:45;;;;;;;7.07;4.70;;;7.50;99.90;;;;;;4995788;28;20400;-69
2024/02/02 05:07:10;;;;;;;5.47;4.43;;;7.50;99.90;;;;;;4996253;28;20202;-70
2024/02/02 05:09:36;;;;;;;6.47;4.70;;;7.40;99.90;;;;;;4977905;28;20262;-69
2024/02/02 05:12:02;;;;;;;4.90;4.27;;;7.50;99.90;;;;;;4976257;28;20168;-69
2024/02/02 05:14:27;;;;;;;7.20;4.60;;;7.60;99.90;;;;;;4976180;28;20364;-70
2024/02/02 05:16:53;;;;;;;6.03;5.53;;;7.60;99.90;;;;;;4976113;28;20232;-70
2024/02/02 05:19:18;;;;;;;4.93;4.50;;;7.60;99.90;;;;;;4991156;28;20588;-69
2024/02/02 05:21:44;;;;;;;4.90;4.37;;;7.60;99.90;;;;;;4995479;28;20180;-69
2024/02/02 05:24:10;;;;;;;6.07;4.40;;;7.60;99.90;;;;;;4994859;28;20204;-70
2024/02/02 05:26:36;;;;;;;5.70;4.30;;;7.70;99.90;;;;;;4992138;28;20186;-69
2024/02/02 05:29:02;;;;;;;6.30;5.50;;;7.70;99.90;;;;;;4981880;28;20415;-69
2024/02/02 05:31:27;;;;;;;9.60;5.50;;;7.70;99.90;;;;;;4975620;28;20183;-69
2024/02/02 05:33:53;;;;;;;5.33;4.73;;;7.70;99.90;;;;;;4975362;28;20460;-69
2024/02/02 05:36:18;;;;;;;5.17;4.67;;;7.60;99.90;;;;;;4975581;28;20215;-69
2024/02/02 05:38:44;;;;;;;5.40;4.67;;;7.70;99.90;;;;;;4985975;28;20218;-69
2024/02/02 05:41:10;;;;;;;4.60;4.20;;;7.70;99.90;;;;;;4994944;28;20202;-69
2024/02/02 05:43:35;;;;;;;5.07;4.57;;;7.70;99.90;;;;;;4994645;28;20261;-69
2024/02/02 05:46:01;;;;;;;6.63;4.83;;;7.70;99.90;;;;;;4995088;28;20594;-69
2024/02/02 05:48:26;;;;;;;5.70;5.20;;;7.70;99.90;;;;;;4986638;28;20187;-69
2024/02/02 05:50:52;;;;;;;6.23;4.40;;;7.70;99.90;;;;;;4975522;28;20547;-69
2024/02/02 05:53:17;;;;;;;4.70;4.30;;;7.70;99.90;;;;;;4974215;28;20249;-68
2024/02/02 05:55:43;;;;;;;7.20;5.20;;;7.60;99.90;;;;;;4975319;28;20170;-69
2024/02/02 05:58:09;;;;;;;4.80;4.20;;;7.70;99.90;;;;;;4984471;28;20608;-68
2024/02/02 06:00:34;;;;;;;8.00;5.73;;;7.80;99.90;;;;;;4975242;28;20305;-68
2024/02/02 06:03:00;;;;;;;6.30;5.07;;;7.70;99.90;;;;;;4975090;28;20204;-69
2024/02/02 06:05:26;;;;;;;5.67;5.07;;;7.70;99.90;;;;;;4974759;28;20168;-69
2024/02/02 06:07:51;;;;;;;5.53;4.67;;;7.70;99.90;;;;;;4977765;28;20179;-69
2024/02/02 06:10:17;;;;;;;5.43;4.33;;;7.70;99.90;;;;;;4994475;28;20182;-68
2024/02/02 06:12:42;;;;;;;4.50;4.10;;;7.70;99.90;;;;;;4994734;28;20677;-69
2024/02/02 06:15:08;;;;;;;7.00;5.10;;;7.80;99.90;;;;;;4992867;28;20170;-71
2024/02/02 06:17:35;;;;;;;7.30;5.63;;;7.70;99.90;;;;;;4994423;28;20178;-69
2024/02/02 06:20:00;;;;;;;6.30;4.67;;;7.80;99.90;;;;;;4974272;28;20407;-69
2024/02/02 06:22:26;;;;;;;8.03;5.33;;;7.80;99.90;;;;;;4974498;28;20416;-69
2024/02/02 06:24:51;;;;;;;5.83;5.10;;;7.80;99.90;;;;;;4974666;28;20167;-69
2024/02/02 06:27:22;;;;;;;5.03;4.53;;;7.80;99.90;;;;;;4974521;28;20210;-69
2024/02/02 06:29:48;;;;;;;8.23;6.27;;;7.90;99.90;;;;;;4992751;28;20264;-69
2024/02/02 06:32:13;;;;;;;5.30;4.80;;;7.90;99.90;;;;;;4994029;28;20474;-69
2024/02/02 06:34:39;;;;;;;7.73;5.60;;;7.90;99.90;;;;;;4994584;28;20191;-69
2024/02/02 06:37:04;;;;;;;5.90;5.17;;;8.00;99.90;;;;;;4993852;28;20196;-69
2024/02/02 06:39:30;;;;;;;7.53;4.87;;;8.00;99.90;;;;;;4977686;28;20717;-69
2024/02/02 06:41:55;;;;;;;8.60;6.30;;;8.00;99.90;;;;;;4974206;28;20171;-69
2024/02/02 06:44:21;;;;;;;7.37;5.67;;;7.90;99.90;;;;;;4974226;28;20192;-68
2024/02/02 06:46:46;;;;;;;6.53;5.00;;;7.90;99.90;;;;;;4973802;28;20180;-68
2024/02/02 06:49:12;;;;;;;6.50;5.03;;;7.80;99.90;;;;;;4987618;28;20180;-67
2024/02/02 06:51:38;;;;;;;6.20;5.60;;;7.90;99.90;;;;;;4993891;28;20164;-69
2024/02/02 06:54:04;;;;;;;7.20;5.53;;;7.90;99.90;;;;;;4993526;28;20290;-68
2024/02/02 06:56:46;;;;;;;7.47;5.70;;;7.90;99.90;;;;;;4994030;28;20194;-69
2024/02/02 06:59:12;;;;;;;7.37;6.23;;;8.00;99.90;;;;;;4980580;28;20463;-69
2024/02/02 07:01:38;;;;;;;6.30;5.43;;;8.00;99.90;;;;;;4974112;28;20499;-69
2024/02/02 07:04:11;;;;;;;7.07;5.90;;;8.10;99.90;;;;;;4974857;28;20196;-68
2024/02/02 07:06:37;;;;;;;6.50;5.83;;;8.10;99.90;;;;;;4978328;28;20408;-69
2024/02/02 07:09:17;;;;;;;7.77;6.70;;;8.10;99.90;;;;;;4989936;28;20439;-71
2024/02/02 07:12:10;;;;;;;8.20;6.30;;;8.10;99.90;;;;;;4997053;28;20384;-71
2024/02/02 07:14:47;;;;;;;7.70;6.50;;;8.10;99.90;;;;;;4977921;28;20812;-72
2024/02/02 07:17:37;;;;;;;5.43;4.93;;;8.10;99.90;;;;;;4977849;28;20965;-70
2024/02/02 07:20:09;;;;;;;7.10;6.40;;;8.10;99.90;;;;;;4978261;28;20388;-69
2024/02/02 07:22:42;;;;;;;6.87;5.90;;;8.10;99.90;;;;;;4978282;28;20783;-71
2024/02/02 07:25:19;;;;;;;8.83;6.40;;;8.00;99.90;;;;;;4978103;28;20477;-71
2024/02/02 07:27:51;;;;;;;7.03;6.07;;;8.10;99.90;;;;;;4993927;28;20421;-70
2024/02/02 07:30:45;;;;;;;7.20;6.00;;;8.10;99.90;;;;;;4978133;28;20401;-70
2024/02/02 07:33:31;;;;;;;6.37;5.77;;;8.30;99.90;;;;;;4977721;28;20459;-71
2024/02/02 07:35:58;;;;;;;8.73;7.60;;;8.30;99.90;;;;;;4977679;28;20479;-70
2024/02/02 07:38:44;;;;;;;7.40;6.57;;;8.30;99.90;;;;;;4983581;28;20607;-69
2024/02/02 07:41:17;;;;;;;8.10;7.30;;;8.40;99.90;;;;;;4997177;28;20386;-72
2024/02/02 07:43:44;;;;;;;7.70;6.50;;;8.40;99.90;;;;;;4997155;28;20554;-69
2024/02/02 07:46:09;;;;;;;9.33;7.70;;;8.50;99.90;;;;;;4997274;28;20403;-72
2024/02/02 07:48:37;;;;;;;7.60;6.67;;;8.40;99.90;;;;;;4989373;28;20867;-72
2024/02/02 07:51:03;;;;;;;8.67;7.67;;;8.50;99.90;;;;;;4977608;28;20493;-70
2024/02/02 07:53:29;;;;;;;8.10;7.30;;;8.50;99.90;;;;;;4977252;28;20990;-71
2024/02/02 07:55:55;;;;;;;8.50;7.67;;;8.60;99.90;;;;;;4977264;28;20494;-70
2024/02/02 07:58:20;;;;;;;10.33;8.17;;;8.70;99.90;;;;;;4982779;28;20261;-71
2024/02/02 08:00:47;;;;;;;7.50;6.80;;;8.70;99.90;;;;;;4996997;28;20169;-70
2024/02/02 08:03:13;;;;;;;9.17;8.20;;;8.80;99.90;;;;;;4981056;28;20205;-71
2024/02/02 08:05:39;;;;;;;8.03;7.20;;;8.80;99.90;;;;;;4976989;28;20410;-70
2024/02/02 08:08:05;;;;;;;8.67;7.10;;;8.80;99.90;;;;;;4979976;28;20177;-72
2024/02/02 08:10:31;;;;;;;7.93;7.03;;;8.90;99.90;;;;;;4996797;28;20411;-72
2024/02/02 08:12:56;;;;;;;8.67;7.50;;;9.00;99.90;;;;;;4996213;28;20458;-70
2024/02/02 08:15:22;;;;;;;8.80;7.90;;;9.00;99.90;;;;;;4996263;28;20505;-69
2024/02/02 08:17:49;;;;;;;9.57;8.67;;;9.10;99.90;;;;;;4995845;28;20174;-71
2024/02/02 08:20:15;;;;;;;7.83;7.03;;;9.20;99.90;;;;;;4976901;28;20417;-72
2024/02/02 08:22:43;;;;;;;8.00;7.20;;;9.30;99.90;;;;;;4976831;28;21064;-72
2024/02/02 08:25:10;;;;;;;11.90;6.90;;;9.20;99.90;;;;;;4977097;28;20429;-70
2024/02/02 08:27:36;;;;;;;7.47;6.77;;;9.30;99.90;;;;;;4976909;28;20404;-71
2024/02/02 08:30:01;;;;;;;8.60;7.70;;;9.30;99.90;;;;;;4994894;28;20469;-69
2024/02/02 08:32:27;;;;;;;8.03;7.23;;;9.40;99.90;;;;;;4995672;28;20414;-68
2024/02/02 08:34:53;;;;;;;7.90;6.90;;;9.40;99.90;;;;;;4996200;28;20164;-71
2024/02/02 08:37:19;;;;;;;9.10;7.93;;;9.60;99.90;;;;;;4996100;28;20165;-71
2024/02/02 08:39:44;;;;;;;7.97;7.27;;;9.60;99.90;;;;;;4979954;28;20167;-71
2024/02/02 08:42:21;;;;;;;8.57;7.03;;;9.70;99.90;;;;;;4976990;28;20248;-72
2024/02/02 08:44:47;;;;;;;11.40;7.60;;;9.80;99.90;;;;;;4976481;28;20158;-70
2024/02/02 08:47:13;;;;;;;7.80;6.43;;;9.70;99.90;;;;;;4976922;28;20415;-72
2024/02/02 08:49:55;;;;;;;7.03;6.37;;;9.80;99.90;;;;;;4993880;28;20400;-72
2024/02/02 08:52:34;;;;;;;7.30;6.60;;;9.90;99.90;;;;;;5001864;28;20430;-73
2024/02/02 08:55:02;;;;;;;7.87;7.03;;;9.90;99.90;;;;;;4997303;28;20405;-71
2024/02/02 08:58:05;;;;;;;12.40;6.87;;;10.00;99.90;;;;;;4997232;28;20413;-72
2024/02/02 09:00:40;;;;;;;9.20;7.30;;;10.00;99.90;;;;;;4976504;28;20395;-72
2024/02/02 09:03:22;;;;;;;6.63;6.03;;;9.90;99.90;;;;;;4976267;28;20441;-71
2024/02/02 09:05:56;;;;;;;8.73;7.77;;;10.10;99.90;;;;;;4976130;28;20405;-69
2024/02/02 09:08:37;;;;;;;7.70;7.00;;;10.10;99.90;;;;;;4980809;28;20465;-70
2024/02/02 09:11:15;;;;;;;7.70;6.67;;;10.20;99.90;;;;;;4995031;28;20422;-72
2024/02/02 09:13:44;;;;;;;8.40;7.33;;;10.20;99.90;;;;;;4995156;28;20455;-71
2024/02/02 09:16:19;;;;;;;7.90;7.03;;;10.20;99.90;;;;;;4995452;28;20435;-71
2024/02/02 09:18:55;;;;;;;6.77;6.03;;;10.10;99.90;;;;;;4995289;28;20403;-69
2024/02/02 09:21:28;;;;;;;6.23;5.63;;;10.20;99.90;;;;;;4995361;28;20772;-70
2024/02/02 09:23:54;;;;;;;7.10;6.40;;;10.20;99.90;;;;;;4995000;28;20457;-69
2024/02/02 09:26:40;;;;;;;7.20;6.50;;;10.30;99.90;;;;;;4994448;28;20779;-69
2024/02/02 09:29:09;;;;;;;6.70;5.70;;;10.20;99.90;;;;;;4994910;28;20424;-71
2024/02/02 09:31:36;;;;;;;7.33;6.63;;;10.10;99.90;;;;;;4994905;28;20496;-69
2024/02/02 09:34:09;;;;;;;12.00;7.80;;;10.10;99.90;;;;;;4991663;28;20515;-69
2024/02/02 09:36:35;;;;;;;8.90;8.00;;;10.20;99.90;;;;;;4981363;28;20510;-69
2024/02/02 09:39:09;;;;;;;9.07;7.40;;;10.00;99.90;;;;;;4975328;28;20540;-70
2024/02/02 09:41:59;;;;;;;8.60;7.50;;;10.30;99.90;;;;;;4980969;28;20270;-70
2024/02/02 09:44:46;;;;;;;8.93;8.00;;;10.40;99.90;;;;;;4994664;28;20431;-68
2024/02/02 09:47:30;;;;;;;7.83;7.07;;;10.70;99.90;;;;;;4994929;28;20500;-71
2024/02/02 09:49:58;;;;;;;7.37;6.70;;;10.70;99.90;;;;;;4994587;28;20450;-70
2024/02/02 09:52:50;;;;;;;6.87;6.17;;;10.80;99.90;;;;;;4982793;28;20810;-72
2024/02/02 09:55:16;;;;;;;7.67;6.93;;;10.90;99.90;;;;;;4975315;28;20416;-70
2024/02/02 09:57:47;;;;;;;8.67;6.20;;;11.00;99.90;;;;;;4975324;28;20462;-71
2024/02/02 10:00:26;;;;;;;7.30;6.60;;;10.60;99.90;;;;;;4974982;28;20647;-71
2024/02/02 10:02:58;;;;;;;7.17;6.47;;;10.60;99.90;;;;;;4990333;28;20530;-73
2024/02/02 10:05:59;;;;;;;7.83;6.20;;;10.80;99.90;;;;;;4993092;28;20441;-71
2024/02/02 10:09:07;;;;;;;5.03;4.60;;;10.60;99.90;;;;;;4993562;28;20507;-71
2024/02/02 10:11:32;;;;;;;5.80;5.20;;;10.70;99.90;;;;;;4994406;28;20411;-71
2024/02/02 10:14:20;;;;;;;6.87;5.23;;;10.80;99.90;;;;;;4994029;28;20468;-70
2024/02/02 10:17:08;;;;;;;5.20;4.40;;;10.90;99.90;;;;;;4994312;28;20242;-70
2024/02/02 10:19:58;;;;;;;5.53;4.97;;;10.90;99.90;;;;;;4974683;28;20830;-71
2024/02/02 10:22:42;;;;;;;4.60;4.17;;;10.80;99.90;;;;;;4974666;28;20420;-71
2024/02/02 10:25:30;;;;;;;6.60;4.90;;;10.80;99.90;;;;;;5005688;23;20490;-68
2024/02/02 10:28:16;;;;;;;5.13;4.30;;;10.70;99.90;;;;;;4992613;28;20415;-68
2024/02/02 10:31:06;;;;;;;5.50;4.50;;;10.60;99.90;;;;;;4994191;28;20387;-67
2024/02/02 10:33:57;;;;;;;4.83;4.27;;;10.30;99.90;;;;;;4994038;28;20505;-67
2024/02/02 10:36:28;;;;;;;5.93;5.33;;;10.40;99.90;;;;;;4994124;28;20388;-69
2024/02/02 10:39:02;;;;;;;6.40;5.80;;;10.50;99.90;;;;;;4993988;28;20786;-68
2024/02/02 10:41:49;;;;;;;5.50;3.80;;;10.70;99.90;;;;;;4992812;28;20399;-68
2024/02/02 10:44:33;;;;;;;5.70;4.60;;;10.90;99.90;;;;;;4993931;28;20938;-70
2024/02/02 10:47:21;;;;;;;10.07;4.30;;;10.70;99.90;;;;;;4994536;28;20428;-68
2024/02/02 10:50:21;;;;;;;4.80;4.33;;;10.90;99.90;;;;;;4974700;28;20939;-70
2024/02/02 10:53:01;;;;;;;5.10;4.60;;;11.20;99.90;;;;;;4972683;28;21100;-68
2024/02/02 10:55:59;;;;;;;4.30;3.63;;;10.90;99.90;;;;;;4974520;28;20399;-68
2024/02/02 10:58:30;;;;;;;4.10;3.70;;;10.90;99.90;;;;;;4984048;28;20487;-68
2024/02/02 11:01:31;;;;;;;5.07;3.93;;;11.10;99.90;;;;;;4993955;28;20428;-67
2024/02/02 11:04:30;;;;;;;3.90;3.60;;;10.90;99.90;;;;;;4992641;28;20439;-69
2024/02/02 11:07:05;;;;;;;4.17;3.77;;;11.30;99.90;;;;;;4993771;28;20920;-67
2024/02/02 11:09:55;;;;;;;3.87;3.57;;;11.50;99.90;;;;;;4993587;28;20482;-68
2024/02/02 11:12:48;;;;;;;4.33;3.10;;;11.30;99.90;;;;;;4993800;28;20403;-67
2024/02/02 11:15:32;;;;;;;3.90;3.30;;;11.30;99.90;;;;;;4993834;28;20437;-68
2024/02/02 11:18:03;;;;;;;3.30;3.00;;;12.20;99.90;;;;;;4987402;28;20394;-67
2024/02/02 11:20:53;;;;;;;3.13;2.83;;;14.00;99.90;;;;;;4974278;28;20463;-68
2024/02/02 11:23:44;;;;;;;3.20;2.83;;;14.60;99.90;;;;;;4973857;28;20423;-69
2024/02/02 11:26:29;;;;;;;2.87;2.50;;;15.60;99.90;;;;;;4985150;28;20497;-68
2024/02/02 11:29:06;;;;;;;3.13;2.83;;;16.20;99.90;;;;;;4980256;28;20422;-69
2024/02/02 11:31:53;;;;;;;2.87;2.40;;;16.00;99.90;;;;;;4974239;28;20396;-67
2024/02/02 11:34:49;;;;;;;2.47;2.27;;;15.50;99.90;;;;;;4974286;28;20471;-68
2024/02/02 11:37:33;;;;;;;3.60;2.27;;;16.40;99.90;;;;;;4974184;28;20390;-69
2024/02/02 11:40:04;;;;;;;2.40;2.00;;;16.60;98.60;;;;;;4974539;28;20416;-68
2024/02/02 11:42:32;;;;;;;3.10;2.10;;;16.50;97.40;;;;;;4974336;28;20470;-69
2024/02/02 11:44:59;;;;;;;2.20;2.00;;;16.40;97.60;;;;;;4974572;28;20421;-69
2024/02/02 11:47:25;;;;;;;2.03;1.83;;;16.50;97.00;;;;;;4975240;28;20408;-69
2024/02/02 11:50:04;;;;;;;3.30;2.00;;;15.90;97.50;;;;;;4994633;28;20406;-69
2024/02/02 11:52:54;;;;;;;3.50;2.07;;;16.30;98.40;;;;;;4996715;28;20160;-69
2024/02/02 11:55:29;;;;;;;2.27;1.83;;;17.40;95.70;;;;;;4997393;28;20577;-69
2024/02/02 11:58:06;;;;;;;2.13;1.93;;;17.00;95.70;;;;;;4997492;28;20766;-69
2024/02/02 12:00:57;;;;;;;3.10;2.20;;;16.80;95.60;;;;;;4997313;28;20391;-69
2024/02/02 12:03:58;;;;;;;2.17;1.97;;;17.40;95.00;;;;;;4994163;28;20443;-69
2024/02/02 12:06:27;;;;;;;2.07;1.70;;;16.70;95.00;;;;;;4987054;28;20426;-68
2024/02/02 12:09:34;;;;;;;1.70;1.50;;;17.00;95.00;;;;;;4984913;28;20435;-69
2024/02/02 12:12:03;;;;;;;2.30;1.70;;;17.20;93.90;;;;;;4956104;29;20417;-68
2024/02/02 12:14:35;;;;;;;2.43;2.00;;;16.10;94.70;;;;;;4974167;28;20475;-69
2024/02/02 12:17:01;;;;;;;4.53;1.70;;;16.20;95.30;;;;;;4977683;28;20539;-68
2024/02/02 12:19:27;;;;;;;2.50;1.40;;;15.80;94.70;;;;;;4993731;28;20888;-68
2024/02/02 12:21:53;;;;;;;1.77;1.53;;;16.80;94.60;;;;;;4996397;28;20910;-68
2024/02/02 12:24:21;;;;;;;1.87;1.30;;;17.10;93.80;;;;;;4996204;28;20205;-68
2024/02/02 12:26:47;;;;;;;1.47;1.23;;;17.50;93.20;;;;;;4996361;28;20408;-68
2024/02/02 12:29:14;;;;;;;2.00;1.43;;;17.60;92.30;;;;;;4996168;28;20418;-69
2024/02/02 12:31:40;;;;;;;2.13;1.70;;;17.60;92.70;;;;;;4996060;28;20180;-68
2024/02/02 12:34:06;;;;;;;2.10;1.30;;;18.00;92.20;;;;;;4996212;28;20462;-68
2024/02/02 12:36:32;;;;;;;3.37;1.67;;;17.70;91.90;;;;;;4996280;28;20412;-67
2024/02/02 12:38:58;;;;;;;5.23;1.40;;;17.40;93.00;;;;;;4983596;28;20301;-68
2024/02/02 12:41:24;;;;;;;1.93;1.50;;;17.30;93.20;;;;;;4976890;28;20170;-68
2024/02/02 12:43:50;;;;;;;2.10;1.80;;;17.10;94.10;;;;;;4975304;28;20441;-69
2024/02/02 12:46:16;;;;;;;2.03;1.10;;;16.80;92.70;;;;;;4975496;28;20169;-69
2024/02/02 12:48:42;;;;;;;3.20;1.30;;;16.30;93.00;;;;;;4986942;28;20538;-69
2024/02/02 12:51:07;;;;;;;2.30;1.53;;;16.20;92.60;;;;;;4996125;28;20211;-69
2024/02/02 12:53:34;;;;;;;2.00;1.40;;;16.30;92.90;;;;;;4995996;28;20262;-69
2024/02/02 12:56:00;;;;;;;2.13;1.47;;;16.80;92.80;;;;;;4996444;28;20165;-69
2024/02/02 12:58:25;;;;;;;1.57;1.40;;;16.70;91.70;;;;;;4987785;28;20407;-69
2024/02/02 13:00:51;;;;;;;1.30;1.10;;;16.90;91.10;;;;;;4976321;28;20201;-70
2024/02/02 13:03:17;;;;;;;1.40;1.30;;;17.10;91.20;;;;;;4975536;28;20189;-69
2024/02/02 13:05:44;;;;;;;1.30;1.20;;;17.30;90.90;;;;;;4976836;28;20180;-69
2024/02/02 13:08:10;;;;;;;3.40;1.37;;;16.90;91.20;;;;;;4980833;28;20164;-72